sensor_id;sensor_type;location;lat;lon;timestamp;pressure;altitude;pressure_sealevel;temperature;humidity
52735;BME280;38631;47.572;10.704;2023-11-19T00:02:19;92589.38;;;5.31;100.00
52735;BME280;38631;47.572;10.704;2023-11-19T00:04:44;92578.38;;;5.24;100.00
52735;BME280;38631;47.572;10.704;2023-11-19T00:07:10;92582.03;;;5.28;100.00
52735;BME280;38631;47.572;10.704;2023-11-19T00:09:37;92596.19;;;5.43;100.00
52735;BME280;38631;47.572;10.704;2023-11-19T00:12:04;92592.47;;;5.44;100.00
52735;BME280;38631;47.572;10.704;2023-11-19T00:14:30;92600.09;;;5.50;100.00
52735;BME280;38631;47.572;10.704;2023-11-19T00:16:55;92600.63;;;5.47;100.00
52735;BME280;38631;47.572;10.704;2023-11-19T00:19:21;92593.25;;;5.49;100.00
52735;BME280;38631;47.572;10.704;2023-11-19T00:21:46;92592.41;;;5.54;100.00
52735;BME280;38631;47.572;10.704;2023-11-19T00:24:12;92572.09;;;5.65;100.00
52735;BME280;38631;47.572;10.704;2023-11-19T00:26:38;92573.91;;;5.64;100.00
52735;BME280;38631;47.572;10.704;2023-11-19T00:29:04;92572.09;;;5.65;100.00
52735;BME280;38631;47.572;10.704;2023-11-19T00:31:29;92562.91;;;5.62;100.00
52735;BME280;38631;47.572;10.704;2023-11-19T00:33:55;92573.88;;;5.69;100.00
52735;BME280;38631;47.572;10.704;2023-11-19T00:36:20;92555.25;;;5.60;100.00
52735;BME280;38631;47.572;10.704;2023-11-19T00:38:46;92562.91;;;5.62;100.00
52735;BME280;38631;47.572;10.704;2023-11-19T00:41:11;92533.69;;;5.53;100.00
52735;BME280;38631;47.572;10.704;2023-11-19T00:43:37;92543.13;;;5.65;100.00
52735;BME280;38631;47.572;10.704;2023-11-19T00:46:02;92538.84;;;5.69;100.00
52735;BME280;38631;47.572;10.704;2023-11-19T00:48:28;92534.41;;;5.64;100.00
52735;BME280;38631;47.572;10.704;2023-11-19T00:50:53;92538.91;;;5.63;100.00
52735;BME280;38631;47.572;10.704;2023-11-19T00:53:19;92534.66;;;5.68;100.00
52735;BME280;38631;47.572;10.704;2023-11-19T00:55:44;92543.34;;;5.68;100.00
52735;BME280;38631;47.572;10.704;2023-11-19T00:58:10;92532.25;;;5.71;100.00
52735;BME280;38631;47.572;10.704;2023-11-19T01:00:35;92529.44;;;5.62;100.00
52735;BME280;38631;47.572;10.704;2023-11-19T01:03:01;92543.34;;;5.68;100.00
52735;BME280;38631;47.572;10.704;2023-11-19T01:05:26;92555.69;;;5.73;100.00
52735;BME280;38631;47.572;10.704;2023-11-19T01:07:52;92543.53;;;5.82;100.00
52735;BME280;38631;47.572;10.704;2023-11-19T01:10:19;92536.97;;;5.79;100.00
52735;BME280;38631;47.572;10.704;2023-11-19T01:12:44;92532.66;;;5.89;100.00
52735;BME280;38631;47.572;10.704;2023-11-19T01:15:10;92532.44;;;5.85;100.00
52735;BME280;38631;47.572;10.704;2023-11-19T01:17:37;92528.22;;;5.84;100.00
52735;BME280;38631;47.572;10.704;2023-11-19T01:20:03;92530.63;;;5.80;100.00
52735;BME280;38631;47.572;10.704;2023-11-19T01:22:31;92520.13;;;5.75;100.00
52735;BME280;38631;47.572;10.704;2023-11-19T01:24:56;92514.06;;;5.75;100.00
52735;BME280;38631;47.572;10.704;2023-11-19T01:27:26;92520.13;;;5.75;100.00
52735;BME280;38631;47.572;10.704;2023-11-19T01:29:51;92510.13;;;5.72;100.00
52735;BME280;38631;47.572;10.704;2023-11-19T01:32:17;92514.06;;;5.75;100.00
52735;BME280;38631;47.572;10.704;2023-11-19T01:34:42;92501.16;;;5.73;100.00
52735;BME280;38631;47.572;10.704;2023-11-19T01:37:07;92513.25;;;5.79;100.00
52735;BME280;38631;47.572;10.704;2023-11-19T01:39:37;92503.53;;;5.75;100.00
52735;BME280;38631;47.572;10.704;2023-11-19T01:42:03;92501.56;;;5.91;100.00
52735;BME280;38631;47.572;10.704;2023-11-19T01:44:28;92500.53;;;5.87;100.00
52735;BME280;38631;47.572;10.704;2023-11-19T01:46:54;92513.38;;;5.93;100.00
52735;BME280;38631;47.572;10.704;2023-11-19T01:49:19;92503.66;;;5.94;100.00
52735;BME280;38631;47.572;10.704;2023-11-19T01:51:47;92508.38;;;5.97;100.00
52735;BME280;38631;47.572;10.704;2023-11-19T01:54:13;92517.13;;;5.87;100.00
52735;BME280;38631;47.572;10.704;2023-11-19T01:56:40;92529.19;;;5.98;100.00
52735;BME280;38631;47.572;10.704;2023-11-19T01:59:07;92514.53;;;5.82;100.00
52735;BME280;38631;47.572;10.704;2023-11-19T02:01:33;92545.81;;;5.94;100.00
52735;BME280;38631;47.572;10.704;2023-11-19T02:04:03;92542.38;;;5.98;100.00
52735;BME280;38631;47.572;10.704;2023-11-19T02:06:32;92543.97;;;5.94;100.00
52735;BME280;38631;47.572;10.704;2023-11-19T02:08:58;92528.41;;;5.93;100.00
52735;BME280;38631;47.572;10.704;2023-11-19T02:11:23;92557.94;;;5.95;100.00
52735;BME280;38631;47.572;10.704;2023-11-19T02:13:54;92534.47;;;5.93;100.00
52735;BME280;38631;47.572;10.704;2023-11-19T02:16:20;92541.59;;;5.93;100.00
52735;BME280;38631;47.572;10.704;2023-11-19T02:18:45;92557.97;;;5.90;100.00
52735;BME280;38631;47.572;10.704;2023-11-19T02:21:11;92561.97;;;5.82;100.00
52735;BME280;38631;47.572;10.704;2023-11-19T02:23:36;92551.88;;;5.89;100.00
52735;BME280;38631;47.572;10.704;2023-11-19T02:26:29;92550.84;;;5.90;100.00
52735;BME280;38631;47.572;10.704;2023-11-19T02:28:58;92553.19;;;5.92;100.00
52735;BME280;38631;47.572;10.704;2023-11-19T02:31:23;92527.81;;;6.06;100.00
52735;BME280;38631;47.572;10.704;2023-11-19T02:33:52;92541.53;;;6.03;100.00
52735;BME280;38631;47.572;10.704;2023-11-19T02:36:18;92536.75;;;6.10;100.00
52735;BME280;38631;47.572;10.704;2023-11-19T02:38:43;92518.81;;;6.12;100.00
52735;BME280;38631;47.572;10.704;2023-11-19T02:41:09;92519.97;;;6.30;100.00
52735;BME280;38631;47.572;10.704;2023-11-19T02:43:37;92514.06;;;6.38;100.00
52735;BME280;38631;47.572;10.704;2023-11-19T02:46:03;92519.91;;;6.35;100.00
52735;BME280;38631;47.572;10.704;2023-11-19T02:48:34;92518.50;;;6.43;100.00
52735;BME280;38631;47.572;10.704;2023-11-19T02:51:03;92526.41;;;6.43;100.00
52735;BME280;38631;47.572;10.704;2023-11-19T02:53:32;92508.31;;;6.31;100.00
52735;BME280;38631;47.572;10.704;2023-11-19T02:55:57;92499.25;;;6.42;100.00
52735;BME280;38631;47.572;10.704;2023-11-19T02:58:31;92509.34;;;6.35;100.00
52735;BME280;38631;47.572;10.704;2023-11-19T03:00:57;92510.59;;;6.43;100.00
52735;BME280;38631;47.572;10.704;2023-11-19T03:03:26;92494.81;;;6.38;100.00
52735;BME280;38631;47.572;10.704;2023-11-19T03:06:12;92501.06;;;6.71;100.00
52735;BME280;38631;47.572;10.704;2023-11-19T03:08:37;92496.03;;;6.69;100.00
52735;BME280;38631;47.572;10.704;2023-11-19T03:11:03;92474.47;;;6.67;100.00
52735;BME280;38631;47.572;10.704;2023-11-19T03:13:30;92481.81;;;6.70;100.00
52735;BME280;38631;47.572;10.704;2023-11-19T03:15:55;92485.84;;;6.63;100.00
52735;BME280;38631;47.572;10.704;2023-11-19T03:18:20;92483.44;;;6.66;100.00
52735;BME280;38631;47.572;10.704;2023-11-19T03:20:46;92476.28;;;6.91;100.00
52735;BME280;38631;47.572;10.704;2023-11-19T03:23:12;92470.28;;;6.85;100.00
52735;BME280;38631;47.572;10.704;2023-11-19T03:25:37;92473.00;;;6.80;100.00
52735;BME280;38631;47.572;10.704;2023-11-19T03:28:03;92467.97;;;6.79;100.00
52735;BME280;38631;47.572;10.704;2023-11-19T03:30:30;92472.69;;;6.82;100.00
52735;BME280;38631;47.572;10.704;2023-11-19T03:32:58;92455.03;;;6.82;100.00
52735;BME280;38631;47.572;10.704;2023-11-19T03:35:25;92462.94;;;6.82;100.00
52735;BME280;38631;47.572;10.704;2023-11-19T03:37:51;92445.03;;;6.98;100.00
52735;BME280;38631;47.572;10.704;2023-11-19T03:40:16;92446.38;;;7.14;100.00
52735;BME280;38631;47.572;10.704;2023-11-19T03:42:42;92454.81;;;7.17;100.00
52735;BME280;38631;47.572;10.704;2023-11-19T03:45:07;92440.91;;;7.11;100.00
52735;BME280;38631;47.572;10.704;2023-11-19T03:47:36;92441.47;;;7.08;100.00
52735;BME280;38631;47.572;10.704;2023-11-19T03:50:02;92462.16;;;7.01;100.00
52735;BME280;38631;47.572;10.704;2023-11-19T03:52:28;92444.81;;;6.95;100.00
52735;BME280;38631;47.572;10.704;2023-11-19T03:54:57;92446.25;;;7.06;100.00
52735;BME280;38631;47.572;10.704;2023-11-19T03:57:23;92436.47;;;7.06;100.00
52735;BME280;38631;47.572;10.704;2023-11-19T03:59:48;92447.56;;;7.27;100.00
52735;BME280;38631;47.572;10.704;2023-11-19T04:02:14;92429.41;;;7.21;100.00
52735;BME280;38631;47.572;10.704;2023-11-19T04:04:40;92431.06;;;7.17;100.00
52735;BME280;38631;47.572;10.704;2023-11-19T04:07:05;92422.34;;;7.16;100.00
52735;BME280;38631;47.572;10.704;2023-11-19T04:09:31;92426.75;;;7.02;100.00
52735;BME280;38631;47.572;10.704;2023-11-19T04:11:58;92430.34;;;7.11;100.00
52735;BME280;38631;47.572;10.704;2023-11-19T04:14:24;92429.41;;;7.21;100.00
52735;BME280;38631;47.572;10.704;2023-11-19T04:16:49;92438.06;;;7.07;100.00
52735;BME280;38631;47.572;10.704;2023-11-19T04:19:16;92431.06;;;7.35;100.00
52735;BME280;38631;47.572;10.704;2023-11-19T04:21:41;92443.41;;;7.40;100.00
52735;BME280;38631;47.572;10.704;2023-11-19T04:24:09;92448.53;;;7.31;100.00
52735;BME280;38631;47.572;10.704;2023-11-19T04:26:44;92449.31;;;7.32;100.00
52735;BME280;38631;47.572;10.704;2023-11-19T04:29:14;92441.75;;;7.44;100.00
52735;BME280;38631;47.572;10.704;2023-11-19T04:31:40;92448.09;;;7.43;100.00
52735;BME280;38631;47.572;10.704;2023-11-19T04:34:06;92459.47;;;7.25;100.00
52735;BME280;38631;47.572;10.704;2023-11-19T04:36:33;92452.03;;;7.27;100.00
52735;BME280;38631;47.572;10.704;2023-11-19T04:38:59;92462.09;;;7.44;100.00
52735;BME280;38631;47.572;10.704;2023-11-19T04:41:25;92453.13;;;7.26;100.00
52735;BME280;38631;47.572;10.704;2023-11-19T04:43:52;92453.19;;;7.21;100.00
52735;BME280;38631;47.572;10.704;2023-11-19T04:46:18;92459.53;;;7.20;100.00
52735;BME280;38631;47.572;10.704;2023-11-19T04:48:44;92468.03;;;7.17;100.00
52735;BME280;38631;47.572;10.704;2023-11-19T04:51:09;92470.66;;;7.17;100.00
52735;BME280;38631;47.572;10.704;2023-11-19T04:53:35;92488.28;;;7.21;100.00
52735;BME280;38631;47.572;10.704;2023-11-19T04:56:00;92505.22;;;7.20;100.00
52735;BME280;38631;47.572;10.704;2023-11-19T04:58:28;92501.72;;;7.25;100.00
52735;BME280;38631;47.572;10.704;2023-11-19T05:00:54;92504.91;;;7.22;100.00
52735;BME280;38631;47.572;10.704;2023-11-19T05:03:19;92505.44;;;7.24;100.00
52735;BME280;38631;47.572;10.704;2023-11-19T05:05:45;92526.69;;;7.13;100.00
52735;BME280;38631;47.572;10.704;2023-11-19T05:08:10;92508.19;;;7.13;100.00
52735;BME280;38631;47.572;10.704;2023-11-19T05:10:36;92525.06;;;7.18;100.00
52735;BME280;38631;47.572;10.704;2023-11-19T05:13:02;92529.13;;;7.10;100.00
52735;BME280;38631;47.572;10.704;2023-11-19T05:15:27;92516.41;;;7.12;100.00
52735;BME280;38631;47.572;10.704;2023-11-19T05:17:53;92502.22;;;7.27;100.00
52735;BME280;38631;47.572;10.704;2023-11-19T05:20:18;92526.28;;;7.25;100.00
52735;BME280;38631;47.572;10.704;2023-11-19T05:22:44;92518.91;;;7.22;100.00
52735;BME280;38631;47.572;10.704;2023-11-19T05:25:10;92510.81;;;7.38;100.00
52735;BME280;38631;47.572;10.704;2023-11-19T05:27:36;92516.94;;;7.52;100.00
52735;BME280;38631;47.572;10.704;2023-11-19T05:30:03;92533.09;;;7.50;100.00
52735;BME280;38631;47.572;10.704;2023-11-19T05:32:29;92535.94;;;7.35;100.00
52735;BME280;38631;47.572;10.704;2023-11-19T05:34:54;92542.34;;;7.29;100.00
52735;BME280;38631;47.572;10.704;2023-11-19T05:37:19;92553.19;;;7.27;100.00
52735;BME280;38631;47.572;10.704;2023-11-19T05:39:45;92543.91;;;7.30;100.00
52735;BME280;38631;47.572;10.704;2023-11-19T05:42:10;92557.47;;;7.42;100.00
52735;BME280;38631;47.572;10.704;2023-11-19T05:44:36;92560.06;;;7.47;100.00
52735;BME280;38631;47.572;10.704;2023-11-19T05:47:03;92556.13;;;7.45;100.00
52735;BME280;38631;47.572;10.704;2023-11-19T05:49:28;92573.31;;;7.42;100.00
52735;BME280;38631;47.572;10.704;2023-11-19T05:51:54;92578.19;;;7.35;100.00
52735;BME280;38631;47.572;10.704;2023-11-19T05:54:21;92566.63;;;7.31;100.00
52735;BME280;38631;47.572;10.704;2023-11-19T05:56:49;92573.38;;;7.37;100.00
52735;BME280;38631;47.572;10.704;2023-11-19T05:59:15;92565.91;;;7.44;100.00
52735;BME280;38631;47.572;10.704;2023-11-19T06:01:43;92563.91;;;7.36;100.00
52735;BME280;38631;47.572;10.704;2023-11-19T06:04:08;92553.41;;;7.31;100.00
52735;BME280;38631;47.572;10.704;2023-11-19T06:06:34;92556.13;;;7.45;100.00
52735;BME280;38631;47.572;10.704;2023-11-19T06:08:59;92553.53;;;7.40;100.00
52735;BME280;38631;47.572;10.704;2023-11-19T06:11:25;92548.63;;;7.33;100.00
52735;BME280;38631;47.572;10.704;2023-11-19T06:13:52;92563.63;;;7.38;100.00
52735;BME280;38631;47.572;10.704;2023-11-19T06:16:17;92570.28;;;7.35;100.00
52735;BME280;38631;47.572;10.704;2023-11-19T06:18:43;92571.81;;;7.36;100.00
52735;BME280;38631;47.572;10.704;2023-11-19T06:21:09;92555.28;;;7.49;100.00
52735;BME280;38631;47.572;10.704;2023-11-19T06:23:35;92562.75;;;7.42;100.00
52735;BME280;38631;47.572;10.704;2023-11-19T06:26:00;92558.63;;;7.36;100.00
52735;BME280;38631;47.572;10.704;2023-11-19T06:28:25;92563.13;;;7.35;100.00
52735;BME280;38631;47.572;10.704;2023-11-19T06:30:51;92560.47;;;7.35;100.00
52735;BME280;38631;47.572;10.704;2023-11-19T06:33:16;92565.84;;;7.30;100.00
52735;BME280;38631;47.572;10.704;2023-11-19T06:35:42;92558.41;;;7.32;100.00
52735;BME280;38631;47.572;10.704;2023-11-19T06:38:07;92552.38;;;7.27;100.00
52735;BME280;38631;47.572;10.704;2023-11-19T06:40:33;92567.84;;;7.39;100.00
52735;BME280;38631;47.572;10.704;2023-11-19T06:43:00;92564.78;;;7.50;100.00
52735;BME280;38631;47.572;10.704;2023-11-19T06:45:25;92549.63;;;7.37;100.00
52735;BME280;38631;47.572;10.704;2023-11-19T06:47:51;92550.19;;;7.34;100.00
52735;BME280;38631;47.572;10.704;2023-11-19T06:50:16;92547.78;;;7.38;100.00
52735;BME280;38631;47.572;10.704;2023-11-19T06:52:42;92565.00;;;7.35;100.00
52735;BME280;38631;47.572;10.704;2023-11-19T06:55:07;92571.06;;;7.35;100.00
52735;BME280;38631;47.572;10.704;2023-11-19T06:57:33;92575.75;;;7.39;100.00
52735;BME280;38631;47.572;10.704;2023-11-19T06:59:58;92585.53;;;7.38;100.00
52735;BME280;38631;47.572;10.704;2023-11-19T07:02:24;92595.75;;;7.45;100.00
52735;BME280;38631;47.572;10.704;2023-11-19T07:04:50;92594.25;;;7.39;100.00
52735;BME280;38631;47.572;10.704;2023-11-19T07:07:16;92588.06;;;7.48;100.00
52735;BME280;38631;47.572;10.704;2023-11-19T07:09:41;92605.53;;;7.44;100.00
52735;BME280;38631;47.572;10.704;2023-11-19T07:12:07;92595.47;;;7.46;100.00
52735;BME280;38631;47.572;10.704;2023-11-19T07:14:32;92593.72;;;7.61;100.00
52735;BME280;38631;47.572;10.704;2023-11-19T07:16:58;92586.78;;;7.65;100.00
52735;BME280;38631;47.572;10.704;2023-11-19T07:19:25;92593.34;;;7.67;100.00
52735;BME280;38631;47.572;10.704;2023-11-19T07:21:50;92599.44;;;7.68;100.00
52735;BME280;38631;47.572;10.704;2023-11-19T07:24:16;92594.34;;;7.52;100.00
52735;BME280;38631;47.572;10.704;2023-11-19T07:26:46;92602.28;;;7.52;100.00
52735;BME280;38631;47.572;10.704;2023-11-19T07:29:12;92598.84;;;7.52;100.00
52735;BME280;38631;47.572;10.704;2023-11-19T07:31:38;92604.34;;;7.55;100.00
52735;BME280;38631;47.572;10.704;2023-11-19T07:34:03;92618.34;;;7.56;100.00
52735;BME280;38631;47.572;10.704;2023-11-19T07:36:31;92607.25;;;7.54;100.00
52735;BME280;38631;47.572;10.704;2023-11-19T07:38:57;92607.59;;;7.47;100.00
52735;BME280;38631;47.572;10.704;2023-11-19T07:41:23;92626.84;;;7.53;100.00
52735;BME280;38631;47.572;10.704;2023-11-19T07:43:50;92611.72;;;7.34;100.00
52735;BME280;38631;47.572;10.704;2023-11-19T07:46:17;92602.03;;;7.30;100.00
52735;BME280;38631;47.572;10.704;2023-11-19T07:48:45;92612.88;;;7.28;100.00
52735;BME280;38631;47.572;10.704;2023-11-19T07:51:12;92598.31;;;7.31;100.00
52735;BME280;38631;47.572;10.704;2023-11-19T07:53:38;92608.88;;;7.31;100.00
52735;BME280;38631;47.572;10.704;2023-11-19T07:56:04;92607.78;;;7.32;100.00
52735;BME280;38631;47.572;10.704;2023-11-19T07:58:29;92604.38;;;7.31;100.00
52735;BME280;38631;47.572;10.704;2023-11-19T08:00:55;92610.66;;;7.35;100.00
52735;BME280;38631;47.572;10.704;2023-11-19T08:03:20;92593.53;;;7.33;100.00
52735;BME280;38631;47.572;10.704;2023-11-19T08:05:47;92590.06;;;7.38;100.00
52735;BME280;38631;47.572;10.704;2023-11-19T08:08:13;92592.69;;;7.38;100.00
52735;BME280;38631;47.572;10.704;2023-11-19T08:10:38;92591.88;;;7.37;100.00
52735;BME280;38631;47.572;10.704;2023-11-19T08:13:05;92598.13;;;7.46;100.00
52735;BME280;38631;47.572;10.704;2023-11-19T08:15:30;92596.25;;;7.47;100.00
52735;BME280;38631;47.572;10.704;2023-11-19T08:17:55;92613.47;;;7.44;100.00
52735;BME280;38631;47.572;10.704;2023-11-19T08:20:21;92604.13;;;7.52;100.00
52735;BME280;38631;47.572;10.704;2023-11-19T08:22:47;92613.91;;;7.51;100.00
52735;BME280;38631;47.572;10.704;2023-11-19T08:25:12;92596.69;;;7.54;100.00
52735;BME280;38631;47.572;10.704;2023-11-19T08:27:38;92614.41;;;7.53;100.00
52735;BME280;38631;47.572;10.704;2023-11-19T08:30:04;92616.84;;;7.50;100.00
52735;BME280;38631;47.572;10.704;2023-11-19T08:32:31;92619.19;;;7.51;100.00
52735;BME280;38631;47.572;10.704;2023-11-19T08:34:56;92614.97;;;7.50;100.00
52735;BME280;38631;47.572;10.704;2023-11-19T08:37:22;92618.84;;;7.58;100.00
52735;BME280;38631;47.572;10.704;2023-11-19T08:39:48;92619.63;;;7.58;100.00
52735;BME280;38631;47.572;10.704;2023-11-19T08:42:14;92630.78;;;7.55;100.00
52735;BME280;38631;47.572;10.704;2023-11-19T08:44:39;92623.13;;;7.54;100.00
52735;BME280;38631;47.572;10.704;2023-11-19T08:47:08;92621.19;;;7.60;100.00
52735;BME280;38631;47.572;10.704;2023-11-19T08:49:34;92626.22;;;7.61;100.00
52735;BME280;38631;47.572;10.704;2023-11-19T08:52:00;92633.13;;;7.57;100.00
52735;BME280;38631;47.572;10.704;2023-11-19T08:54:25;92620.78;;;7.52;100.00
52735;BME280;38631;47.572;10.704;2023-11-19T08:56:50;92628.56;;;7.63;100.00
52735;BME280;38631;47.572;10.704;2023-11-19T08:59:16;92628.28;;;7.64;100.00
52735;BME280;38631;47.572;10.704;2023-11-19T09:01:41;92630.00;;;7.74;100.00
52735;BME280;38631;47.572;10.704;2023-11-19T09:04:07;92636.06;;;7.74;100.00
52735;BME280;38631;47.572;10.704;2023-11-19T09:06:33;92628.22;;;7.88;100.00
52735;BME280;38631;47.572;10.704;2023-11-19T09:09:00;92640.38;;;7.89;100.00
52735;BME280;38631;47.572;10.704;2023-11-19T09:11:28;92630.72;;;7.79;100.00
52735;BME280;38631;47.572;10.704;2023-11-19T09:13:54;92647.00;;;7.87;100.00
52735;BME280;38631;47.572;10.704;2023-11-19T09:16:19;92655.25;;;7.85;100.00
52735;BME280;38631;47.572;10.704;2023-11-19T09:18:44;92638.75;;;7.93;100.00
52735;BME280;38631;47.572;10.704;2023-11-19T09:21:13;92629.28;;;7.87;100.00
52735;BME280;38631;47.572;10.704;2023-11-19T09:23:38;92622.63;;;7.90;100.00
52735;BME280;38631;47.572;10.704;2023-11-19T09:26:10;92626.38;;;8.08;100.00
52735;BME280;38631;47.572;10.704;2023-11-19T09:28:36;92634.44;;;7.97;100.00
52735;BME280;38631;47.572;10.704;2023-11-19T09:31:01;92633.31;;;8.04;100.00
52735;BME280;38631;47.572;10.704;2023-11-19T09:33:30;92637.50;;;8.05;100.00
52735;BME280;38631;47.572;10.704;2023-11-19T09:35:55;92638.09;;;8.01;100.00
52735;BME280;38631;47.572;10.704;2023-11-19T09:38:21;92629.84;;;8.22;100.00
52735;BME280;38631;47.572;10.704;2023-11-19T09:40:46;92622.44;;;8.24;100.00
52735;BME280;38631;47.572;10.704;2023-11-19T09:43:14;92619.69;;;8.29;100.00
52735;BME280;38631;47.572;10.704;2023-11-19T09:45:48;92622.69;;;8.22;100.00
52735;BME280;38631;47.572;10.704;2023-11-19T09:48:17;92616.06;;;8.25;100.00
52735;BME280;38631;47.572;10.704;2023-11-19T09:50:45;92617.44;;;8.41;100.00
52735;BME280;38631;47.572;10.704;2023-11-19T09:53:12;92609.41;;;8.47;100.00
52735;BME280;38631;47.572;10.704;2023-11-19T09:55:37;92626.06;;;8.47;100.00
52735;BME280;38631;47.572;10.704;2023-11-19T09:58:03;92625.28;;;8.47;100.00
52735;BME280;38631;47.572;10.704;2023-11-19T10:00:29;92596.22;;;8.60;100.00
52735;BME280;38631;47.572;10.704;2023-11-19T10:02:55;92608.13;;;8.44;100.00
52735;BME280;38631;47.572;10.704;2023-11-19T10:05:23;92623.41;;;8.47;100.00
52735;BME280;38631;47.572;10.704;2023-11-19T10:07:49;92616.75;;;8.50;100.00
52735;BME280;38631;47.572;10.704;2023-11-19T10:10:15;92620.91;;;8.56;100.00
52735;BME280;38631;47.572;10.704;2023-11-19T10:12:44;92621.50;;;8.53;100.00
52735;BME280;38631;47.572;10.704;2023-11-19T10:15:19;92595.38;;;8.79;100.00
52735;BME280;38631;47.572;10.704;2023-11-19T10:17:45;92617.06;;;8.81;100.00
52735;BME280;38631;47.572;10.704;2023-11-19T10:20:10;92610.16;;;8.80;100.00
52735;BME280;38631;47.572;10.704;2023-11-19T10:22:39;92603.50;;;8.82;100.00
52735;BME280;38631;47.572;10.704;2023-11-19T10:25:25;92592.81;;;8.87;100.00
52735;BME280;38631;47.572;10.704;2023-11-19T10:27:51;92600.28;;;8.85;100.00
52735;BME280;38631;47.572;10.704;2023-11-19T10:30:27;92577.22;;;8.72;100.00
52735;BME280;38631;47.572;10.704;2023-11-19T10:33:07;92595.09;;;8.80;100.00
52735;BME280;38631;47.572;10.704;2023-11-19T10:35:34;92604.59;;;8.81;100.00
52735;BME280;38631;47.572;10.704;2023-11-19T10:38:13;92607.16;;;8.86;100.00
52735;BME280;38631;47.572;10.704;2023-11-19T10:40:39;92602.03;;;8.90;100.00
52735;BME280;38631;47.572;10.704;2023-11-19T10:43:30;92595.28;;;8.84;100.00
52735;BME280;38631;47.572;10.704;2023-11-19T10:46:16;92599.22;;;8.86;100.00
52735;BME280;38631;47.572;10.704;2023-11-19T10:48:46;92600.19;;;8.91;100.00
52735;BME280;38631;47.572;10.704;2023-11-19T10:51:13;92596.66;;;8.81;100.00
52735;BME280;38631;47.572;10.704;2023-11-19T10:53:49;92607.84;;;8.92;100.00
52735;BME280;38631;47.572;10.704;2023-11-19T10:56:16;92586.94;;;8.77;100.00
52735;BME280;38631;47.572;10.704;2023-11-19T10:58:45;92583.59;;;8.85;100.00
52735;BME280;38631;47.572;10.704;2023-11-19T11:01:20;92584.88;;;8.87;100.00
52735;BME280;38631;47.572;10.704;2023-11-19T11:03:51;92575.47;;;8.95;100.00
52735;BME280;38631;47.572;10.704;2023-11-19T11:06:18;92571.66;;;9.01;100.00
52735;BME280;38631;47.572;10.704;2023-11-19T11:08:46;92589.00;;;9.07;100.00
52735;BME280;38631;47.572;10.704;2023-11-19T11:11:13;92577.44;;;9.17;100.00
52735;BME280;38631;47.572;10.704;2023-11-19T11:13:42;92587.53;;;9.15;100.00
52735;BME280;38631;47.572;10.704;2023-11-19T11:16:08;92577.84;;;8.97;100.00
52735;BME280;38631;47.572;10.704;2023-11-19T11:18:33;92575.47;;;8.95;100.00
52735;BME280;38631;47.572;10.704;2023-11-19T11:21:20;92574.59;;;9.00;100.00
52735;BME280;38631;47.572;10.704;2023-11-19T11:24:10;92578.41;;;9.07;100.00
52735;BME280;38631;47.572;10.704;2023-11-19T11:34:44;92579.81;;;9.19;100.00
52735;BME280;38631;47.572;10.704;2023-11-19T11:37:32;92565.38;;;9.11;100.00
52735;BME280;38631;47.572;10.704;2023-11-19T11:39:58;92568.81;;;9.25;100.00
52735;BME280;38631;47.572;10.704;2023-11-19T11:42:33;92568.50;;;9.41;100.00
52735;BME280;38631;47.572;10.704;2023-11-19T11:45:03;92561.84;;;9.43;100.00
52735;BME280;38631;47.572;10.704;2023-11-19T11:50:09;92569.88;;;9.52;100.00
52735;BME280;38631;47.572;10.704;2023-11-19T11:57:57;92538.75;;;9.44;100.00
52735;BME280;38631;47.572;10.704;2023-11-19T12:03:00;92553.69;;;9.54;100.00
52735;BME280;38631;47.572;10.704;2023-11-19T12:05:26;92539.44;;;9.49;100.00
52735;BME280;38631;47.572;10.704;2023-11-19T12:07:55;92549.25;;;9.49;100.00
52735;BME280;38631;47.572;10.704;2023-11-19T12:10:21;92544.25;;;9.47;100.00
52735;BME280;38631;47.572;10.704;2023-11-19T12:12:47;92549.06;;;9.45;100.00
52735;BME280;38631;47.572;10.704;2023-11-19T12:15:15;92537.88;;;9.48;100.00
52735;BME280;38631;47.572;10.704;2023-11-19T12:17:42;92528.72;;;9.55;100.00
52735;BME280;38631;47.572;10.704;2023-11-19T12:20:11;92511.06;;;9.50;100.00
52735;BME280;38631;47.572;10.704;2023-11-19T12:22:41;92520.31;;;9.39;100.00
52735;BME280;38631;47.572;10.704;2023-11-19T12:25:10;92495.09;;;9.27;100.00
52735;BME280;38631;47.572;10.704;2023-11-19T12:27:39;92514.09;;;9.57;100.00
52735;BME280;38631;47.572;10.704;2023-11-19T12:30:06;92488.28;;;9.49;100.00
52735;BME280;38631;47.572;10.704;2023-11-19T12:32:42;92509.81;;;9.70;100.00
52735;BME280;38631;47.572;10.704;2023-11-19T12:35:09;92535.91;;;9.54;100.00
52735;BME280;38631;47.572;10.704;2023-11-19T12:37:45;92522.88;;;9.44;100.00
52735;BME280;38631;47.572;10.704;2023-11-19T12:40:24;92513.31;;;9.43;100.00
52735;BME280;38631;47.572;10.704;2023-11-19T12:42:54;92514.25;;;9.38;100.00
52735;BME280;38631;47.572;10.704;2023-11-19T12:45:24;92519.66;;;9.33;100.00
52735;BME280;38631;47.572;10.704;2023-11-19T12:48:06;92520.13;;;9.35;100.00
52735;BME280;38631;47.572;10.704;2023-11-19T12:50:53;92534.63;;;9.38;100.00
52735;BME280;38631;47.572;10.704;2023-11-19T12:53:23;92529.13;;;9.48;100.00
52735;BME280;38631;47.572;10.704;2023-11-19T12:55:49;92520.22;;;9.44;100.00
52735;BME280;38631;47.572;10.704;2023-11-19T12:58:35;92526.47;;;9.48;100.00
52735;BME280;38631;47.572;10.704;2023-11-19T13:01:07;92521.59;;;9.41;100.00
52735;BME280;38631;47.572;10.704;2023-11-19T13:03:35;92514.69;;;9.54;100.00
52735;BME280;38631;47.572;10.704;2023-11-19T13:06:21;92516.97;;;9.47;100.00
52735;BME280;38631;47.572;10.704;2023-11-19T13:08:49;92512.06;;;9.40;100.00
52735;BME280;38631;47.572;10.704;2023-11-19T13:11:34;92491.94;;;9.39;100.00